sensor_id;sensor_type;location;lat;lon;timestamp;P1;durP1;ratioP1;P2;durP2;ratioP2
17886;SDS011;9069;52.044;7.472;2023-04-06T00:00:35;7.70;;;5.05;;
17886;SDS011;9069;52.044;7.472;2023-04-06T00:03:02;6.85;;;4.85;;
17886;SDS011;9069;52.044;7.472;2023-04-06T00:05:29;7.85;;;4.82;;
17886;SDS011;9069;52.044;7.472;2023-04-06T00:07:57;7.93;;;4.40;;
17886;SDS011;9069;52.044;7.472;2023-04-06T00:10:24;7.70;;;3.97;;
17886;SDS011;9069;52.044;7.472;2023-04-06T00:12:51;11.38;;;4.63;;
17886;SDS011;9069;52.044;7.472;2023-04-06T00:15:18;7.70;;;4.32;;
17886;SDS011;9069;52.044;7.472;2023-04-06T00:17:46;8.10;;;4.97;;
17886;SDS011;9069;52.044;7.472;2023-04-06T00:20:13;10.35;;;4.90;;
17886;SDS011;9069;52.044;7.472;2023-04-06T00:22:39;6.90;;;4.15;;
17886;SDS011;9069;52.044;7.472;2023-04-06T00:25:06;11.07;;;4.57;;
17886;SDS011;9069;52.044;7.472;2023-04-06T00:27:33;9.18;;;4.65;;
17886;SDS011;9069;52.044;7.472;2023-04-06T00:30:00;6.80;;;4.25;;
17886;SDS011;9069;52.044;7.472;2023-04-06T00:32:27;8.20;;;4.30;;
17886;SDS011;9069;52.044;7.472;2023-04-06T00:34:54;6.25;;;4.28;;
17886;SDS011;9069;52.044;7.472;2023-04-06T00:37:21;8.45;;;4.95;;
17886;SDS011;9069;52.044;7.472;2023-04-06T00:39:48;7.20;;;4.65;;
17886;SDS011;9069;52.044;7.472;2023-04-06T00:42:14;8.63;;;4.63;;
17886;SDS011;9069;52.044;7.472;2023-04-06T00:44:41;10.25;;;4.63;;
17886;SDS011;9069;52.044;7.472;2023-04-06T00:47:08;8.30;;;4.70;;
17886;SDS011;9069;52.044;7.472;2023-04-06T00:49:35;8.38;;;4.45;;
17886;SDS011;9069;52.044;7.472;2023-04-06T00:52:02;9.32;;;4.90;;
17886;SDS011;9069;52.044;7.472;2023-04-06T00:54:29;11.85;;;5.03;;
17886;SDS011;9069;52.044;7.472;2023-04-06T00:56:57;8.82;;;4.35;;
17886;SDS011;9069;52.044;7.472;2023-04-06T00:59:27;9.05;;;5.13;;
17886;SDS011;9069;52.044;7.472;2023-04-06T01:01:56;6.95;;;4.40;;
17886;SDS011;9069;52.044;7.472;2023-04-06T01:04:31;11.98;;;4.85;;
17886;SDS011;9069;52.044;7.472;2023-04-06T01:07:00;7.47;;;4.35;;
17886;SDS011;9069;52.044;7.472;2023-04-06T01:09:36;14.73;;;5.20;;
17886;SDS011;9069;52.044;7.472;2023-04-06T01:12:10;7.95;;;4.57;;
17886;SDS011;9069;52.044;7.472;2023-04-06T01:14:36;8.35;;;4.28;;
17886;SDS011;9069;52.044;7.472;2023-04-06T01:17:03;8.73;;;4.18;;
17886;SDS011;9069;52.044;7.472;2023-04-06T01:19:32;7.95;;;4.40;;
17886;SDS011;9069;52.044;7.472;2023-04-06T01:21:59;9.75;;;4.85;;
17886;SDS011;9069;52.044;7.472;2023-04-06T01:24:29;9.32;;;4.25;;
17886;SDS011;9069;52.044;7.472;2023-04-06T01:27:05;7.60;;;4.90;;
17886;SDS011;9069;52.044;7.472;2023-04-06T01:29:51;8.90;;;4.82;;
17886;SDS011;9069;52.044;7.472;2023-04-06T01:32:35;7.55;;;4.53;;
17886;SDS011;9069;52.044;7.472;2023-04-06T01:35:02;8.93;;;4.68;;
17886;SDS011;9069;52.044;7.472;2023-04-06T01:37:33;8.23;;;5.15;;
17886;SDS011;9069;52.044;7.472;2023-04-06T01:40:03;8.60;;;5.75;;
17886;SDS011;9069;52.044;7.472;2023-04-06T01:42:42;8.10;;;4.93;;
17886;SDS011;9069;52.044;7.472;2023-04-06T01:45:14;7.32;;;4.80;;
17886;SDS011;9069;52.044;7.472;2023-04-06T01:47:41;8.65;;;4.95;;
17886;SDS011;9069;52.044;7.472;2023-04-06T01:50:09;9.68;;;4.78;;
17886;SDS011;9069;52.044;7.472;2023-04-06T01:52:41;7.63;;;4.78;;
17886;SDS011;9069;52.044;7.472;2023-04-06T01:55:09;8.85;;;4.93;;
17886;SDS011;9069;52.044;7.472;2023-04-06T01:57:55;6.10;;;4.47;;
17886;SDS011;9069;52.044;7.472;2023-04-06T02:00:32;9.48;;;5.03;;
17886;SDS011;9069;52.044;7.472;2023-04-06T02:02:59;10.52;;;5.25;;
17886;SDS011;9069;52.044;7.472;2023-04-06T02:05:29;8.50;;;5.05;;
17886;SDS011;9069;52.044;7.472;2023-04-06T02:07:58;11.55;;;4.75;;
17886;SDS011;9069;52.044;7.472;2023-04-06T02:10:31;7.13;;;4.85;;
17886;SDS011;9069;52.044;7.472;2023-04-06T02:13:03;11.15;;;5.18;;
17886;SDS011;9069;52.044;7.472;2023-04-06T02:15:30;8.32;;;4.63;;
17886;SDS011;9069;52.044;7.472;2023-04-06T02:17:58;8.60;;;5.13;;
17886;SDS011;9069;52.044;7.472;2023-04-06T02:20:25;10.05;;;5.45;;
17886;SDS011;9069;52.044;7.472;2023-04-06T02:22:52;8.35;;;4.90;;
17886;SDS011;9069;52.044;7.472;2023-04-06T02:25:19;12.23;;;5.00;;
17886;SDS011;9069;52.044;7.472;2023-04-06T02:27:46;9.57;;;4.95;;
17886;SDS011;9069;52.044;7.472;2023-04-06T02:30:12;9.70;;;5.18;;
17886;SDS011;9069;52.044;7.472;2023-04-06T02:32:39;8.60;;;4.85;;
17886;SDS011;9069;52.044;7.472;2023-04-06T02:35:06;10.40;;;5.22;;
17886;SDS011;9069;52.044;7.472;2023-04-06T02:37:34;8.85;;;4.82;;
17886;SDS011;9069;52.044;7.472;2023-04-06T02:40:00;9.35;;;4.95;;
17886;SDS011;9069;52.044;7.472;2023-04-06T02:42:29;9.18;;;5.20;;
17886;SDS011;9069;52.044;7.472;2023-04-06T02:44:57;8.82;;;4.72;;
17886;SDS011;9069;52.044;7.472;2023-04-06T02:47:30;12.82;;;5.15;;
17886;SDS011;9069;52.044;7.472;2023-04-06T02:49:57;10.88;;;5.32;;
17886;SDS011;9069;52.044;7.472;2023-04-06T02:52:24;9.95;;;5.50;;
17886;SDS011;9069;52.044;7.472;2023-04-06T02:54:50;13.40;;;5.40;;
17886;SDS011;9069;52.044;7.472;2023-04-06T02:57:24;8.55;;;4.65;;
17886;SDS011;9069;52.044;7.472;2023-04-06T02:59:51;8.13;;;5.00;;
17886;SDS011;9069;52.044;7.472;2023-04-06T03:02:23;10.23;;;5.60;;
17886;SDS011;9069;52.044;7.472;2023-04-06T03:04:54;8.80;;;5.32;;
17886;SDS011;9069;52.044;7.472;2023-04-06T03:07:27;9.07;;;5.35;;
17886;SDS011;9069;52.044;7.472;2023-04-06T03:09:54;7.20;;;4.90;;
17886;SDS011;9069;52.044;7.472;2023-04-06T03:12:21;9.57;;;4.97;;
17886;SDS011;9069;52.044;7.472;2023-04-06T03:15:06;9.57;;;6.05;;
17886;SDS011;9069;52.044;7.472;2023-04-06T03:17:35;9.57;;;4.82;;
17886;SDS011;9069;52.044;7.472;2023-04-06T03:20:07;8.27;;;5.18;;
17886;SDS011;9069;52.044;7.472;2023-04-06T03:22:34;11.10;;;5.05;;
17886;SDS011;9069;52.044;7.472;2023-04-06T03:25:01;16.27;;;5.97;;
17886;SDS011;9069;52.044;7.472;2023-04-06T03:27:30;12.10;;;5.30;;
17886;SDS011;9069;52.044;7.472;2023-04-06T03:29:58;8.98;;;4.75;;
17886;SDS011;9069;52.044;7.472;2023-04-06T03:32:30;9.10;;;5.22;;
17886;SDS011;9069;52.044;7.472;2023-04-06T03:34:57;8.93;;;5.80;;
17886;SDS011;9069;52.044;7.472;2023-04-06T03:37:24;13.88;;;6.45;;
17886;SDS011;9069;52.044;7.472;2023-04-06T03:39:54;12.52;;;6.15;;
17886;SDS011;9069;52.044;7.472;2023-04-06T03:42:23;10.60;;;5.75;;
17886;SDS011;9069;52.044;7.472;2023-04-06T03:44:55;8.65;;;5.72;;
17886;SDS011;9069;52.044;7.472;2023-04-06T03:47:22;11.80;;;6.40;;
17886;SDS011;9069;52.044;7.472;2023-04-06T03:49:50;7.32;;;5.53;;
17886;SDS011;9069;52.044;7.472;2023-04-06T03:52:17;9.60;;;6.30;;
17886;SDS011;9069;52.044;7.472;2023-04-06T03:54:44;9.48;;;5.78;;
17886;SDS011;9069;52.044;7.472;2023-04-06T03:57:10;7.75;;;5.63;;
17886;SDS011;9069;52.044;7.472;2023-04-06T03:59:37;11.43;;;5.85;;
17886;SDS011;9069;52.044;7.472;2023-04-06T04:02:04;9.25;;;5.57;;
17886;SDS011;9069;52.044;7.472;2023-04-06T04:04:31;16.58;;;6.35;;
17886;SDS011;9069;52.044;7.472;2023-04-06T04:06:58;10.88;;;5.80;;
17886;SDS011;9069;52.044;7.472;2023-04-06T04:09:24;12.05;;;6.10;;
17886;SDS011;9069;52.044;7.472;2023-04-06T04:11:54;9.85;;;6.32;;
17886;SDS011;9069;52.044;7.472;2023-04-06T04:14:22;14.13;;;6.50;;
17886;SDS011;9069;52.044;7.472;2023-04-06T04:16:49;10.90;;;5.72;;
17886;SDS011;9069;52.044;7.472;2023-04-06T04:19:17;12.18;;;6.10;;
17886;SDS011;9069;52.044;7.472;2023-04-06T04:21:44;17.42;;;5.97;;
17886;SDS011;9069;52.044;7.472;2023-04-06T04:24:15;15.70;;;5.88;;
17886;SDS011;9069;52.044;7.472;2023-04-06T04:26:42;12.55;;;6.30;;
17886;SDS011;9069;52.044;7.472;2023-04-06T04:29:08;10.02;;;6.30;;
17886;SDS011;9069;52.044;7.472;2023-04-06T04:31:37;11.50;;;5.88;;
17886;SDS011;9069;52.044;7.472;2023-04-06T04:34:11;11.02;;;6.32;;
17886;SDS011;9069;52.044;7.472;2023-04-06T04:36:37;10.68;;;6.47;;
17886;SDS011;9069;52.044;7.472;2023-04-06T04:39:07;10.32;;;6.55;;
17886;SDS011;9069;52.044;7.472;2023-04-06T04:41:39;10.43;;;6.13;;
17886;SDS011;9069;52.044;7.472;2023-04-06T04:44:08;12.48;;;5.90;;
17886;SDS011;9069;52.044;7.472;2023-04-06T04:46:35;11.80;;;5.60;;
17886;SDS011;9069;52.044;7.472;2023-04-06T04:49:03;11.98;;;6.40;;
17886;SDS011;9069;52.044;7.472;2023-04-06T04:51:31;16.88;;;6.57;;
17886;SDS011;9069;52.044;7.472;2023-04-06T04:54:06;10.18;;;6.20;;
17886;SDS011;9069;52.044;7.472;2023-04-06T04:56:33;12.25;;;6.47;;
17886;SDS011;9069;52.044;7.472;2023-04-06T04:59:13;8.68;;;5.80;;
17886;SDS011;9069;52.044;7.472;2023-04-06T05:01:46;10.15;;;6.00;;
17886;SDS011;9069;52.044;7.472;2023-04-06T05:04:26;10.60;;;6.78;;
17886;SDS011;9069;52.044;7.472;2023-04-06T05:07:03;12.65;;;7.18;;
17886;SDS011;9069;52.044;7.472;2023-04-06T05:09:32;12.35;;;7.07;;
17886;SDS011;9069;52.044;7.472;2023-04-06T05:11:59;13.30;;;7.05;;
17886;SDS011;9069;52.044;7.472;2023-04-06T05:14:31;10.13;;;6.72;;
17886;SDS011;9069;52.044;7.472;2023-04-06T05:16:59;14.88;;;7.22;;
17886;SDS011;9069;52.044;7.472;2023-04-06T05:19:26;9.15;;;5.85;;
17886;SDS011;9069;52.044;7.472;2023-04-06T05:21:53;13.60;;;6.57;;
17886;SDS011;9069;52.044;7.472;2023-04-06T05:24:19;17.63;;;6.32;;
17886;SDS011;9069;52.044;7.472;2023-04-06T05:26:48;13.10;;;6.97;;
17886;SDS011;9069;52.044;7.472;2023-04-06T05:29:21;15.10;;;6.60;;
17886;SDS011;9069;52.044;7.472;2023-04-06T05:31:48;12.32;;;6.40;;
17886;SDS011;9069;52.044;7.472;2023-04-06T05:34:15;14.98;;;7.05;;
17886;SDS011;9069;52.044;7.472;2023-04-06T05:36:42;16.60;;;7.22;;
17886;SDS011;9069;52.044;7.472;2023-04-06T05:39:16;10.55;;;6.32;;
17886;SDS011;9069;52.044;7.472;2023-04-06T05:41:47;17.25;;;6.68;;
17886;SDS011;9069;52.044;7.472;2023-04-06T05:44:20;26.35;;;7.53;;
17886;SDS011;9069;52.044;7.472;2023-04-06T05:46:57;19.08;;;7.28;;
17886;SDS011;9069;52.044;7.472;2023-04-06T05:49:24;73.20;;;12.50;;
17886;SDS011;9069;52.044;7.472;2023-04-06T05:51:51;27.80;;;9.77;;
17886;SDS011;9069;52.044;7.472;2023-04-06T05:54:19;14.77;;;8.02;;
17886;SDS011;9069;52.044;7.472;2023-04-06T05:56:46;16.55;;;7.13;;
17886;SDS011;9069;52.044;7.472;2023-04-06T05:59:14;10.57;;;6.80;;
17886;SDS011;9069;52.044;7.472;2023-04-06T06:01:43;12.70;;;7.15;;
17886;SDS011;9069;52.044;7.472;2023-04-06T06:04:11;10.63;;;6.35;;
17886;SDS011;9069;52.044;7.472;2023-04-06T06:06:39;14.00;;;7.30;;
17886;SDS011;9069;52.044;7.472;2023-04-06T06:09:13;9.52;;;6.05;;
17886;SDS011;9069;52.044;7.472;2023-04-06T06:11:49;15.07;;;7.90;;
17886;SDS011;9069;52.044;7.472;2023-04-06T06:14:18;12.93;;;6.85;;
17886;SDS011;9069;52.044;7.472;2023-04-06T06:16:45;11.23;;;6.45;;
17886;SDS011;9069;52.044;7.472;2023-04-06T06:19:14;12.88;;;6.65;;
17886;SDS011;9069;52.044;7.472;2023-04-06T06:21:42;11.07;;;7.00;;
17886;SDS011;9069;52.044;7.472;2023-04-06T06:24:09;15.60;;;6.93;;
17886;SDS011;9069;52.044;7.472;2023-04-06T06:26:36;14.15;;;6.82;;
17886;SDS011;9069;52.044;7.472;2023-04-06T06:29:03;12.05;;;6.80;;
17886;SDS011;9069;52.044;7.472;2023-04-06T06:31:33;11.90;;;6.53;;
17886;SDS011;9069;52.044;7.472;2023-04-06T06:34:00;12.75;;;6.82;;
17886;SDS011;9069;52.044;7.472;2023-04-06T06:36:31;12.50;;;6.75;;
17886;SDS011;9069;52.044;7.472;2023-04-06T06:38:58;14.77;;;7.13;;
17886;SDS011;9069;52.044;7.472;2023-04-06T06:41:26;12.77;;;6.55;;
17886;SDS011;9069;52.044;7.472;2023-04-06T06:43:53;13.65;;;7.10;;
17886;SDS011;9069;52.044;7.472;2023-04-06T06:46:20;10.68;;;6.90;;
17886;SDS011;9069;52.044;7.472;2023-04-06T06:48:47;12.63;;;6.72;;
17886;SDS011;9069;52.044;7.472;2023-04-06T06:51:14;13.38;;;7.35;;
17886;SDS011;9069;52.044;7.472;2023-04-06T06:53:41;12.75;;;6.68;;
17886;SDS011;9069;52.044;7.472;2023-04-06T06:56:07;12.48;;;6.45;;
17886;SDS011;9069;52.044;7.472;2023-04-06T06:58:34;12.60;;;6.22;;
17886;SDS011;9069;52.044;7.472;2023-04-06T07:01:01;18.80;;;7.13;;
17886;SDS011;9069;52.044;7.472;2023-04-06T07:09:21;14.25;;;7.85;;
17886;SDS011;9069;52.044;7.472;2023-04-06T07:11:48;12.10;;;6.32;;
17886;SDS011;9069;52.044;7.472;2023-04-06T07:14:15;11.80;;;7.03;;
17886;SDS011;9069;52.044;7.472;2023-04-06T07:16:43;12.57;;;6.82;;
17886;SDS011;9069;52.044;7.472;2023-04-06T07:19:11;10.65;;;6.63;;
17886;SDS011;9069;52.044;7.472;2023-04-06T07:21:38;11.70;;;6.95;;
17886;SDS011;9069;52.044;7.472;2023-04-06T07:24:04;11.55;;;6.82;;
17886;SDS011;9069;52.044;7.472;2023-04-06T07:26:32;12.20;;;6.72;;
17886;SDS011;9069;52.044;7.472;2023-04-06T07:28:58;10.75;;;6.13;;
17886;SDS011;9069;52.044;7.472;2023-04-06T07:31:26;11.90;;;6.60;;
17886;SDS011;9069;52.044;7.472;2023-04-06T07:33:53;8.80;;;6.13;;
17886;SDS011;9069;52.044;7.472;2023-04-06T07:36:20;9.55;;;6.00;;
17886;SDS011;9069;52.044;7.472;2023-04-06T07:38:47;10.40;;;6.70;;
17886;SDS011;9069;52.044;7.472;2023-04-06T07:41:15;9.10;;;6.28;;
17886;SDS011;9069;52.044;7.472;2023-04-06T07:43:42;9.27;;;5.75;;
17886;SDS011;9069;52.044;7.472;2023-04-06T07:46:09;10.48;;;5.93;;
17886;SDS011;9069;52.044;7.472;2023-04-06T07:48:37;11.75;;;5.57;;
17886;SDS011;9069;52.044;7.472;2023-04-06T07:51:05;9.02;;;6.10;;
17886;SDS011;9069;52.044;7.472;2023-04-06T07:53:36;14.13;;;6.10;;
17886;SDS011;9069;52.044;7.472;2023-04-06T07:56:03;7.47;;;5.35;;
17886;SDS011;9069;52.044;7.472;2023-04-06T07:58:29;9.90;;;5.95;;
17886;SDS011;9069;52.044;7.472;2023-04-06T08:00:56;10.70;;;5.68;;
17886;SDS011;9069;52.044;7.472;2023-04-06T08:03:23;9.88;;;6.47;;
17886;SDS011;9069;52.044;7.472;2023-04-06T08:05:52;7.80;;;5.75;;
17886;SDS011;9069;52.044;7.472;2023-04-06T08:08:19;10.30;;;6.07;;
17886;SDS011;9069;52.044;7.472;2023-04-06T08:10:47;8.23;;;6.00;;
17886;SDS011;9069;52.044;7.472;2023-04-06T08:13:14;6.88;;;5.63;;
17886;SDS011;9069;52.044;7.472;2023-04-06T08:15:42;8.88;;;6.25;;
17886;SDS011;9069;52.044;7.472;2023-04-06T08:18:09;9.88;;;5.97;;
17886;SDS011;9069;52.044;7.472;2023-04-06T08:20:35;9.90;;;5.82;;
17886;SDS011;9069;52.044;7.472;2023-04-06T08:23:02;8.15;;;5.82;;
17886;SDS011;9069;52.044;7.472;2023-04-06T08:25:29;7.40;;;6.53;;
17886;SDS011;9069;52.044;7.472;2023-04-06T08:27:56;8.32;;;5.53;;
17886;SDS011;9069;52.044;7.472;2023-04-06T08:30:22;9.90;;;6.25;;
17886;SDS011;9069;52.044;7.472;2023-04-06T08:32:49;9.55;;;6.03;;
17886;SDS011;9069;52.044;7.472;2023-04-06T08:35:16;9.00;;;5.88;;
17886;SDS011;9069;52.044;7.472;2023-04-06T08:37:43;8.68;;;6.20;;
17886;SDS011;9069;52.044;7.472;2023-04-06T08:40:10;8.43;;;5.95;;
17886;SDS011;9069;52.044;7.472;2023-04-06T08:42:42;11.40;;;5.82;;
17886;SDS011;9069;52.044;7.472;2023-04-06T08:45:13;7.85;;;5.82;;
17886;SDS011;9069;52.044;7.472;2023-04-06T08:47:40;8.88;;;6.18;;
17886;SDS011;9069;52.044;7.472;2023-04-06T08:50:07;10.95;;;6.40;;
17886;SDS011;9069;52.044;7.472;2023-04-06T08:52:34;10.95;;;5.93;;
17886;SDS011;9069;52.044;7.472;2023-04-06T08:55:02;8.32;;;5.80;;
17886;SDS011;9069;52.044;7.472;2023-04-06T08:57:29;8.18;;;6.15;;
17886;SDS011;9069;52.044;7.472;2023-04-06T08:59:57;8.15;;;6.28;;
17886;SDS011;9069;52.044;7.472;2023-04-06T09:14:38;8.00;;;5.55;;
17886;SDS011;9069;52.044;7.472;2023-04-06T09:17:06;9.40;;;6.68;;
17886;SDS011;9069;52.044;7.472;2023-04-06T09:19:33;7.53;;;5.55;;
17886;SDS011;9069;52.044;7.472;2023-04-06T09:22:03;14.18;;;5.93;;
17886;SDS011;9069;52.044;7.472;2023-04-06T09:24:46;10.15;;;7.00;;
17886;SDS011;9069;52.044;7.472;2023-04-06T09:27:14;9.20;;;6.88;;
17886;SDS011;9069;52.044;7.472;2023-04-06T09:29:42;10.63;;;7.53;;
17886;SDS011;9069;52.044;7.472;2023-04-06T09:32:10;8.50;;;6.93;;
17886;SDS011;9069;52.044;7.472;2023-04-06T09:34:38;8.45;;;6.85;;
17886;SDS011;9069;52.044;7.472;2023-04-06T09:37:15;9.35;;;7.00;;
17886;SDS011;9069;52.044;7.472;2023-04-06T09:39:42;8.90;;;6.70;;
17886;SDS011;9069;52.044;7.472;2023-04-06T09:42:09;10.30;;;7.10;;
17886;SDS011;9069;52.044;7.472;2023-04-06T09:44:36;8.82;;;6.75;;
17886;SDS011;9069;52.044;7.472;2023-04-06T09:47:04;8.65;;;7.07;;
17886;SDS011;9069;52.044;7.472;2023-04-06T09:49:34;10.25;;;7.53;;
17886;SDS011;9069;52.044;7.472;2023-04-06T09:52:02;11.65;;;7.30;;
17886;SDS011;9069;52.044;7.472;2023-04-06T09:54:32;11.55;;;7.20;;
17886;SDS011;9069;52.044;7.472;2023-04-06T10:02:07;11.38;;;7.28;;
17886;SDS011;9069;52.044;7.472;2023-04-06T10:07:09;9.63;;;7.50;;
17886;SDS011;9069;52.044;7.472;2023-04-06T10:09:41;14.65;;;8.02;;
17886;SDS011;9069;52.044;7.472;2023-04-06T10:12:12;14.02;;;8.55;;
17886;SDS011;9069;52.044;7.472;2023-04-06T10:14:39;12.30;;;9.13;;
17886;SDS011;9069;52.044;7.472;2023-04-06T10:17:07;12.75;;;9.43;;
17886;SDS011;9069;52.044;7.472;2023-04-06T10:19:42;13.35;;;10.15;;
17886;SDS011;9069;52.044;7.472;2023-04-06T10:22:22;12.98;;;8.98;;
17886;SDS011;9069;52.044;7.472;2023-04-06T10:24:54;13.40;;;8.85;;
17886;SDS011;9069;52.044;7.472;2023-04-06T10:27:28;12.00;;;9.15;;
17886;SDS011;9069;52.044;7.472;2023-04-06T10:30:02;12.40;;;8.57;;
17886;SDS011;9069;52.044;7.472;2023-04-06T10:35:10;13.77;;;9.57;;
17886;SDS011;9069;52.044;7.472;2023-04-06T10:37:45;11.13;;;9.43;;
17886;SDS011;9069;52.044;7.472;2023-04-06T10:40:20;11.32;;;8.77;;
17886;SDS011;9069;52.044;7.472;2023-04-06T10:42:52;10.32;;;8.18;;
17886;SDS011;9069;52.044;7.472;2023-04-06T10:45:23;12.55;;;9.23;;
17886;SDS011;9069;52.044;7.472;2023-04-06T10:47:54;15.18;;;9.60;;
17886;SDS011;9069;52.044;7.472;2023-04-06T10:50:22;13.93;;;9.25;;
17886;SDS011;9069;52.044;7.472;2023-04-06T10:53:02;11.43;;;8.93;;
17886;SDS011;9069;52.044;7.472;2023-04-06T10:55:29;11.35;;;9.27;;
17886;SDS011;9069;52.044;7.472;2023-04-06T10:57:56;13.60;;;9.60;;
17886;SDS011;9069;52.044;7.472;2023-04-06T11:00:23;16.52;;;10.05;;
17886;SDS011;9069;52.044;7.472;2023-04-06T11:03:04;14.95;;;9.57;;
17886;SDS011;9069;52.044;7.472;2023-04-06T11:05:31;14.48;;;10.57;;
17886;SDS011;9069;52.044;7.472;2023-04-06T11:07:58;13.70;;;9.23;;
17886;SDS011;9069;52.044;7.472;2023-04-06T11:10:24;13.15;;;9.38;;
17886;SDS011;9069;52.044;7.472;2023-04-06T11:12:55;13.15;;;10.13;;
17886;SDS011;9069;52.044;7.472;2023-04-06T11:15:22;14.15;;;9.52;;
17886;SDS011;9069;52.044;7.472;2023-04-06T11:17:49;16.35;;;10.43;;
17886;SDS011;9069;52.044;7.472;2023-04-06T11:20:16;13.93;;;10.13;;
17886;SDS011;9069;52.044;7.472;2023-04-06T11:22:52;15.13;;;9.45;;
17886;SDS011;9069;52.044;7.472;2023-04-06T11:25:19;14.50;;;10.07;;
17886;SDS011;9069;52.044;7.472;2023-04-06T11:27:46;14.95;;;9.55;;
17886;SDS011;9069;52.044;7.472;2023-04-06T11:30:14;16.15;;;10.15;;
17886;SDS011;9069;52.044;7.472;2023-04-06T11:32:41;14.50;;;9.75;;
17886;SDS011;9069;52.044;7.472;2023-04-06T11:35:22;13.52;;;9.63;;
17886;SDS011;9069;52.044;7.472;2023-04-06T11:37:49;13.90;;;9.80;;
17886;SDS011;9069;52.044;7.472;2023-04-06T11:40:20;12.98;;;9.73;;
17886;SDS011;9069;52.044;7.472;2023-04-06T11:42:51;13.75;;;9.70;;
17886;SDS011;9069;52.044;7.472;2023-04-06T11:45:19;12.23;;;9.40;;
17886;SDS011;9069;52.044;7.472;2023-04-06T11:47:54;13.32;;;9.68;;
17886;SDS011;9069;52.044;7.472;2023-04-06T11:50:31;12.07;;;8.38;;
17886;SDS011;9069;52.044;7.472;2023-04-06T11:52:59;13.30;;;10.20;;
17886;SDS011;9069;52.044;7.472;2023-04-06T11:55:27;16.45;;;10.73;;
17886;SDS011;9069;52.044;7.472;2023-04-06T11:57:56;14.23;;;10.20;;
17886;SDS011;9069;52.044;7.472;2023-04-06T12:00:23;14.95;;;10.18;;
17886;SDS011;9069;52.044;7.472;2023-04-06T12:02:50;17.67;;;11.20;;
17886;SDS011;9069;52.044;7.472;2023-04-06T12:05:16;15.88;;;11.43;;
17886;SDS011;9069;52.044;7.472;2023-04-06T12:07:43;18.20;;;10.43;;
17886;SDS011;9069;52.044;7.472;2023-04-06T12:10:10;16.17;;;10.50;;
17886;SDS011;9069;52.044;7.472;2023-04-06T12:12:37;14.00;;;10.73;;
17886;SDS011;9069;52.044;7.472;2023-04-06T12:15:04;16.55;;;10.82;;
17886;SDS011;9069;52.044;7.472;2023-04-06T12:17:31;18.30;;;12.45;;
17886;SDS011;9069;52.044;7.472;2023-04-06T12:19:58;19.52;;;12.25;;
17886;SDS011;9069;52.044;7.472;2023-04-06T12:22:31;15.05;;;9.77;;
17886;SDS011;9069;52.044;7.472;2023-04-06T12:24:57;15.20;;;10.07;;
17886;SDS011;9069;52.044;7.472;2023-04-06T12:27:24;17.48;;;10.07;;
17886;SDS011;9069;52.044;7.472;2023-04-06T12:29:51;13.98;;;10.23;;
17886;SDS011;9069;52.044;7.472;2023-04-06T12:32:18;14.27;;;9.25;;
17886;SDS011;9069;52.044;7.472;2023-04-06T12:34:45;14.35;;;9.63;;
17886;SDS011;9069;52.044;7.472;2023-04-06T12:37:12;12.18;;;9.52;;
17886;SDS011;9069;52.044;7.472;2023-04-06T12:39:38;15.60;;;9.30;;
17886;SDS011;9069;52.044;7.472;2023-04-06T12:42:05;14.63;;;9.48;;
17886;SDS011;9069;52.044;7.472;2023-04-06T12:44:32;13.88;;;10.13;;
17886;SDS011;9069;52.044;7.472;2023-04-06T12:46:58;13.82;;;9.48;;
17886;SDS011;9069;52.044;7.472;2023-04-06T12:49:25;14.63;;;9.38;;
17886;SDS011;9069;52.044;7.472;2023-04-06T12:51:52;14.80;;;9.48;;
17886;SDS011;9069;52.044;7.472;2023-04-06T12:54:19;14.85;;;9.35;;
17886;SDS011;9069;52.044;7.472;2023-04-06T12:56:46;16.13;;;9.70;;
17886;SDS011;9069;52.044;7.472;2023-04-06T12:59:12;13.38;;;8.98;;
17886;SDS011;9069;52.044;7.472;2023-04-06T13:01:39;15.82;;;10.30;;
17886;SDS011;9069;52.044;7.472;2023-04-06T13:04:06;17.42;;;9.40;;
17886;SDS011;9069;52.044;7.472;2023-04-06T13:06:33;14.18;;;9.63;;
17886;SDS011;9069;52.044;7.472;2023-04-06T13:08:59;15.65;;;8.55;;
17886;SDS011;9069;52.044;7.472;2023-04-06T13:11:26;13.73;;;8.77;;
17886;SDS011;9069;52.044;7.472;2023-04-06T13:13:54;13.02;;;8.88;;
17886;SDS011;9069;52.044;7.472;2023-04-06T13:16:21;15.73;;;8.73;;
17886;SDS011;9069;52.044;7.472;2023-04-06T13:18:48;13.77;;;8.40;;
17886;SDS011;9069;52.044;7.472;2023-04-06T13:21:14;16.75;;;8.43;;
17886;SDS011;9069;52.044;7.472;2023-04-06T13:23:46;15.68;;;9.10;;
17886;SDS011;9069;52.044;7.472;2023-04-06T13:26:13;13.48;;;9.15;;
17886;SDS011;9069;52.044;7.472;2023-04-06T13:28:42;15.15;;;8.75;;
17886;SDS011;9069;52.044;7.472;2023-04-06T13:31:09;16.10;;;9.45;;
17886;SDS011;9069;52.044;7.472;2023-04-06T13:33:36;16.58;;;9.40;;
17886;SDS011;9069;52.044;7.472;2023-04-06T13:36:03;17.25;;;9.70;;
17886;SDS011;9069;52.044;7.472;2023-04-06T13:38:30;14.57;;;9.30;;
17886;SDS011;9069;52.044;7.472;2023-04-06T13:40:57;18.65;;;9.77;;
17886;SDS011;9069;52.044;7.472;2023-04-06T13:43:24;14.18;;;9.65;;
17886;SDS011;9069;52.044;7.472;2023-04-06T13:45:53;14.95;;;9.93;;
17886;SDS011;9069;52.044;7.472;2023-04-06T13:48:25;16.08;;;9.55;;
17886;SDS011;9069;52.044;7.472;2023-04-06T13:50:52;15.10;;;9.52;;
17886;SDS011;9069;52.044;7.472;2023-04-06T13:53:19;15.50;;;9.75;;
17886;SDS011;9069;52.044;7.472;2023-04-06T13:55:53;13.55;;;9.45;;
17886;SDS011;9069;52.044;7.472;2023-04-06T13:58:20;17.23;;;11.75;;
17886;SDS011;9069;52.044;7.472;2023-04-06T14:00:47;17.10;;;10.38;;
17886;SDS011;9069;52.044;7.472;2023-04-06T14:03:14;15.43;;;9.45;;
17886;SDS011;9069;52.044;7.472;2023-04-06T14:05:41;14.80;;;9.43;;
17886;SDS011;9069;52.044;7.472;2023-04-06T14:08:08;22.38;;;11.27;;
17886;SDS011;9069;52.044;7.472;2023-04-06T14:10:41;14.85;;;9.43;;
17886;SDS011;9069;52.044;7.472;2023-04-06T14:13:08;15.02;;;9.25;;
17886;SDS011;9069;52.044;7.472;2023-04-06T14:15:35;16.20;;;10.02;;
17886;SDS011;9069;52.044;7.472;2023-04-06T14:18:01;16.73;;;9.70;;
17886;SDS011;9069;52.044;7.472;2023-04-06T14:20:30;17.00;;;10.05;;
17886;SDS011;9069;52.044;7.472;2023-04-06T14:23:02;16.42;;;10.57;;
17886;SDS011;9069;52.044;7.472;2023-04-06T14:25:29;19.15;;;10.90;;
17886;SDS011;9069;52.044;7.472;2023-04-06T14:28:00;15.00;;;9.68;;
17886;SDS011;9069;52.044;7.472;2023-04-06T14:30:29;18.02;;;9.93;;
17886;SDS011;9069;52.044;7.472;2023-04-06T14:32:56;15.32;;;9.02;;
17886;SDS011;9069;52.044;7.472;2023-04-06T14:35:24;14.32;;;8.50;;
17886;SDS011;9069;52.044;7.472;2023-04-06T14:37:51;16.08;;;8.60;;
17886;SDS011;9069;52.044;7.472;2023-04-06T14:40:18;20.60;;;8.95;;
17886;SDS011;9069;52.044;7.472;2023-04-06T14:42:44;15.70;;;9.07;;
17886;SDS011;9069;52.044;7.472;2023-04-06T14:45:11;16.50;;;8.40;;
17886;SDS011;9069;52.044;7.472;2023-04-06T14:47:38;17.13;;;8.35;;
17886;SDS011;9069;52.044;7.472;2023-04-06T14:50:05;13.75;;;8.35;;
17886;SDS011;9069;52.044;7.472;2023-04-06T14:52:32;13.32;;;7.63;;
17886;SDS011;9069;52.044;7.472;2023-04-06T14:54:58;18.13;;;8.18;;
17886;SDS011;9069;52.044;7.472;2023-04-06T14:57:25;12.88;;;7.78;;
17886;SDS011;9069;52.044;7.472;2023-04-06T14:59:52;14.75;;;8.35;;
17886;SDS011;9069;52.044;7.472;2023-04-06T15:02:20;14.32;;;7.57;;
17886;SDS011;9069;52.044;7.472;2023-04-06T15:04:47;16.67;;;7.13;;
17886;SDS011;9069;52.044;7.472;2023-04-06T15:07:14;10.70;;;7.05;;
17886;SDS011;9069;52.044;7.472;2023-04-06T15:09:40;14.20;;;7.15;;
17886;SDS011;9069;52.044;7.472;2023-04-06T15:12:07;9.77;;;6.45;;
17886;SDS011;9069;52.044;7.472;2023-04-06T15:14:34;11.18;;;7.13;;
17886;SDS011;9069;52.044;7.472;2023-04-06T15:17:01;10.65;;;6.78;;
17886;SDS011;9069;52.044;7.472;2023-04-06T15:19:27;15.02;;;7.70;;
17886;SDS011;9069;52.044;7.472;2023-04-06T15:21:54;11.38;;;6.88;;
17886;SDS011;9069;52.044;7.472;2023-04-06T15:24:21;10.85;;;6.53;;
17886;SDS011;9069;52.044;7.472;2023-04-06T15:26:47;13.23;;;6.25;;